createdAt,value
2023-01-03T00:00:08.608Z,81
2023-01-03T00:02:07.936Z,81
2023-01-03T00:03:07.983Z,81
2023-01-03T00:04:08.691Z,81
2023-01-03T00:05:08.652Z,81
2023-01-03T00:06:07.790Z,81
2023-01-03T00:07:08.620Z,81
2023-01-03T00:08:07.963Z,81
2023-01-03T00:09:08.139Z,81
2023-01-03T00:10:08.308Z,81
2023-01-03T00:11:08.547Z,81
2023-01-03T00:12:08.086Z,81
2023-01-03T00:13:08.212Z,81
2023-01-03T00:14:08.310Z,81
2023-01-03T00:15:08.441Z,81
2023-01-03T00:16:06.883Z,81
2023-01-03T00:17:08.133Z,81
2023-01-03T00:18:08.134Z,81
2023-01-03T00:19:08.433Z,81
2023-01-03T00:20:08.621Z,81
2023-01-03T00:21:08.786Z,81
2023-01-03T00:22:08.169Z,81
2023-01-03T00:23:08.724Z,81
2023-01-03T00:24:07.733Z,82
2023-01-03T00:25:08.211Z,82
2023-01-03T00:26:08.312Z,82
2023-01-03T00:27:08.546Z,82
2023-01-03T00:28:07.481Z,82
2023-01-03T00:29:08.452Z,82
2023-01-03T00:30:08.744Z,82
2023-01-03T00:32:08.657Z,82
2023-01-03T00:33:07.914Z,82
2023-01-03T00:34:08.400Z,82
2023-01-03T00:35:11.737Z,83
2023-01-03T00:36:08.021Z,83
2023-01-03T00:37:08.106Z,83
2023-01-03T00:38:07.994Z,83
2023-01-03T00:39:08.572Z,83
2023-01-03T00:40:08.433Z,83
2023-01-03T00:41:07.662Z,83
2023-01-03T00:42:07.973Z,83
2023-01-03T00:43:07.928Z,83
2023-01-03T00:44:08.042Z,83
2023-01-03T00:45:13.229Z,83
2023-01-03T00:46:08.082Z,83
2023-01-03T00:47:08.182Z,83
2023-01-03T00:48:08.391Z,83
2023-01-03T00:49:07.294Z,83
2023-01-03T00:50:08.554Z,83
2023-01-03T00:51:08.506Z,83
2023-01-03T00:52:08.220Z,83
2023-01-03T00:53:07.537Z,83
2023-01-03T00:54:07.691Z,83
2023-01-03T00:55:08.376Z,83
2023-01-03T00:56:07.801Z,83
2023-01-03T00:57:08.285Z,83
2023-01-03T00:58:08.260Z,83
2023-01-03T00:59:08.493Z,83
2023-01-03T01:00:07.853Z,83
2023-01-03T01:01:08.413Z,83
2023-01-03T01:02:08.521Z,83
2023-01-03T01:03:08.967Z,83
2023-01-03T01:04:08.364Z,83
2023-01-03T01:05:08.384Z,83
2023-01-03T01:06:07.819Z,83
2023-01-03T01:07:08.269Z,83
2023-01-03T01:08:08.434Z,83
2023-01-03T01:09:08.340Z,83
2023-01-03T01:10:08.376Z,83
2023-01-03T01:11:08.397Z,83
2023-01-03T01:12:07.681Z,84
2023-01-03T01:13:07.605Z,84
2023-01-03T01:14:08.122Z,84
2023-01-03T01:15:08.228Z,84
2023-01-03T01:16:08.252Z,84
2023-01-03T01:17:08.302Z,84
2023-01-03T01:18:08.493Z,84
2023-01-03T01:19:08.476Z,84
2023-01-03T01:21:08.313Z,84
2023-01-03T01:22:08.250Z,84
2023-01-03T01:23:08.487Z,84
2023-01-03T01:24:09.588Z,84
2023-01-03T01:25:08.260Z,84
2023-01-03T01:26:08.263Z,84
2023-01-03T01:27:08.074Z,84
2023-01-03T01:29:08.414Z,84
2023-01-03T01:31:09.006Z,84
2023-01-03T01:33:07.806Z,84
2023-01-03T01:34:08.169Z,84
2023-01-03T01:35:08.470Z,84
2023-01-03T01:36:08.197Z,84
2023-01-03T01:37:08.601Z,84
2023-01-03T01:38:07.933Z,84
2023-01-03T01:39:08.273Z,84
2023-01-03T01:40:07.872Z,84
2023-01-03T01:41:08.191Z,84
2023-01-03T01:42:06.887Z,84
2023-01-03T01:43:07.726Z,84
2023-01-03T01:44:07.876Z,84
2023-01-03T01:45:08.566Z,84
2023-01-03T01:46:08.312Z,84
2023-01-03T01:47:08.313Z,84
2023-01-03T01:48:08.543Z,84
2023-01-03T01:49:08.591Z,84
2023-01-03T01:50:08.022Z,84
2023-01-03T01:51:08.465Z,84
2023-01-03T01:52:08.546Z,84
2023-01-03T01:54:08.329Z,84
2023-01-03T01:55:07.286Z,84
2023-01-03T01:56:08.197Z,84
2023-01-03T01:58:06.829Z,84
2023-01-03T02:00:08.046Z,84
2023-01-03T02:01:08.185Z,84
2023-01-03T02:02:09.376Z,84
2023-01-03T02:03:08.345Z,84
2023-01-03T02:04:08.175Z,84
2023-01-03T02:05:08.340Z,84
2023-01-03T02:06:08.820Z,84
2023-01-03T02:07:07.518Z,84
2023-01-03T02:08:08.723Z,84
2023-01-03T02:09:07.506Z,84
2023-01-03T02:10:08.453Z,84
2023-01-03T02:11:08.019Z,84
2023-01-03T02:12:08.238Z,84
2023-01-03T02:13:08.151Z,84
2023-01-03T02:14:08.163Z,84
2023-01-03T02:15:08.329Z,84
2023-01-03T02:16:08.762Z,84
2023-01-03T02:17:07.904Z,84
2023-01-03T02:19:08.507Z,84
2023-01-03T02:20:07.751Z,84
2023-01-03T02:21:08.375Z,84
2023-01-03T02:22:08.684Z,84
2023-01-03T02:24:08.134Z,84
2023-01-03T02:25:08.432Z,84
2023-01-03T02:26:07.815Z,84
2023-01-03T02:27:08.087Z,84
2023-01-03T02:28:08.228Z,84
2023-01-03T02:29:07.909Z,84
2023-01-03T02:30:08.538Z,84
2023-01-03T02:31:08.398Z,84
2023-01-03T02:32:07.614Z,84
2023-01-03T02:33:06.993Z,84
2023-01-03T02:34:06.930Z,84
2023-01-03T02:35:07.947Z,84
2023-01-03T02:36:08.401Z,84
2023-01-03T02:37:07.821Z,84
2023-01-03T02:38:08.120Z,85
2023-01-03T02:39:08.565Z,85
2023-01-03T02:40:08.055Z,85
2023-01-03T02:41:08.420Z,85
2023-01-03T02:42:07.894Z,85
2023-01-03T02:43:07.995Z,85
2023-01-03T02:44:08.109Z,85
2023-01-03T02:45:07.809Z,85
2023-01-03T02:46:08.546Z,85
2023-01-03T02:47:08.666Z,85
2023-01-03T02:48:08.123Z,85
2023-01-03T02:49:08.311Z,85
2023-01-03T02:50:07.930Z,85
2023-01-03T02:51:08.048Z,85
2023-01-03T02:52:07.823Z,85
2023-01-03T02:53:08.091Z,85
2023-01-03T02:54:07.688Z,85
2023-01-03T02:55:08.118Z,85
2023-01-03T02:56:08.355Z,85
2023-01-03T02:57:08.338Z,85
2023-01-03T02:58:08.292Z,85
2023-01-03T02:59:07.248Z,85
2023-01-03T03:00:08.230Z,85
2023-01-03T03:01:09.054Z,85
2023-01-03T03:02:09.383Z,85
2023-01-03T03:03:08.914Z,85
2023-01-03T03:04:08.367Z,85
2023-01-03T03:05:08.432Z,85
2023-01-03T03:06:08.519Z,85
2023-01-03T03:07:08.587Z,85
2023-01-03T03:08:07.879Z,85
2023-01-03T03:09:08.527Z,85
2023-01-03T03:10:07.930Z,85
2023-01-03T03:11:06.939Z,85
2023-01-03T03:12:08.534Z,85
2023-01-03T03:13:08.115Z,85
2023-01-03T03:14:08.141Z,85
2023-01-03T03:15:08.327Z,85
2023-01-03T03:19:08.516Z,85
2023-01-03T03:20:13.087Z,85
2023-01-03T03:21:08.122Z,85
2023-01-03T03:22:08.394Z,85
2023-01-03T03:23:08.814Z,85
2023-01-03T03:24:08.004Z,85
2023-01-03T03:25:08.181Z,85
2023-01-03T03:26:08.600Z,85
2023-01-03T03:27:07.824Z,85
2023-01-03T03:28:08.189Z,85
2023-01-03T03:29:08.202Z,85
2023-01-03T03:30:08.594Z,85
2023-01-03T03:31:08.558Z,85
2023-01-03T03:32:08.598Z,85
2023-01-03T03:33:07.850Z,85
2023-01-03T03:34:08.248Z,85
2023-01-03T03:35:07.995Z,85
2023-01-03T03:36:08.021Z,85
2023-01-03T03:37:07.863Z,85
2023-01-03T03:38:07.944Z,85
2023-01-03T03:40:07.804Z,86
2023-01-03T03:41:08.435Z,86
2023-01-03T03:42:08.539Z,86
2023-01-03T03:43:07.895Z,86
2023-01-03T03:44:08.187Z,86
2023-01-03T03:45:08.725Z,86
2023-01-03T03:46:08.272Z,86
2023-01-03T03:47:10.890Z,86
2023-01-03T03:48:08.017Z,86
2023-01-03T03:49:08.220Z,86
2023-01-03T03:50:07.893Z,86
2023-01-03T03:53:08.541Z,86
2023-01-03T03:54:08.525Z,86
2023-01-03T03:55:07.856Z,86
2023-01-03T03:56:08.171Z,86
2023-01-03T03:57:08.611Z,86
2023-01-03T03:59:08.419Z,86
2023-01-03T04:00:08.427Z,86
2023-01-03T04:01:08.012Z,86
2023-01-03T04:02:09.037Z,86
2023-01-03T04:04:08.375Z,86
2023-01-03T04:05:06.814Z,86
2023-01-03T04:07:08.087Z,86
2023-01-03T04:10:08.291Z,86
2023-01-03T04:11:08.731Z,86
2023-01-03T04:12:08.562Z,86
2023-01-03T04:13:07.843Z,86
2023-01-03T04:14:08.056Z,86
2023-01-03T04:15:07.951Z,86
2023-01-03T04:16:08.374Z,86
2023-01-03T04:17:07.875Z,86
2023-01-03T04:18:07.983Z,86
2023-01-03T04:19:08.353Z,86
2023-01-03T04:20:08.339Z,86
2023-01-03T04:21:08.734Z,86
2023-01-03T04:22:08.310Z,86
2023-01-03T04:23:08.292Z,86
2023-01-03T04:24:08.463Z,86
2023-01-03T04:27:07.877Z,86
2023-01-03T04:28:07.451Z,86
2023-01-03T04:29:07.611Z,86
2023-01-03T04:30:08.485Z,86
2023-01-03T04:32:08.289Z,86
2023-01-03T04:33:07.606Z,86
2023-01-03T04:34:08.600Z,86
2023-01-03T04:35:08.090Z,86
2023-01-03T04:36:07.831Z,86
2023-01-03T04:37:08.197Z,86
2023-01-03T04:40:08.135Z,86
2023-01-03T04:41:08.504Z,86
2023-01-03T04:42:08.483Z,86
2023-01-03T04:43:08.404Z,86
2023-01-03T04:44:07.274Z,86
2023-01-03T04:45:08.517Z,86
2023-01-03T04:46:08.808Z,86
2023-01-03T04:47:08.089Z,86
2023-01-03T04:48:07.761Z,86
2023-01-03T04:49:07.754Z,86
2023-01-03T04:53:08.340Z,86
2023-01-03T04:54:08.519Z,86
2023-01-03T04:55:07.569Z,86
2023-01-03T04:56:08.183Z,86
2023-01-03T04:57:08.139Z,86
2023-01-03T04:58:08.169Z,86
2023-01-03T04:59:07.421Z,86
2023-01-03T05:00:08.442Z,86
2023-01-03T05:01:08.916Z,86
2023-01-03T05:03:08.124Z,86
2023-01-03T05:05:08.043Z,86
2023-01-03T05:07:08.540Z,86
2023-01-03T05:08:08.307Z,86
2023-01-03T05:09:07.946Z,86
2023-01-03T05:10:07.898Z,86
2023-01-03T05:11:08.072Z,86
2023-01-03T05:12:07.731Z,86
2023-01-03T05:13:08.506Z,86
2023-01-03T05:14:16.172Z,86
2023-01-03T05:15:08.320Z,86
2023-01-03T05:16:08.176Z,86
2023-01-03T05:17:08.207Z,86
2023-01-03T05:18:08.603Z,86
2023-01-03T05:19:08.496Z,86
2023-01-03T05:20:07.733Z,86
2023-01-03T05:21:08.077Z,86
2023-01-03T05:22:07.862Z,86
2023-01-03T05:23:08.442Z,86
2023-01-03T05:24:08.129Z,86
2023-01-03T05:25:08.832Z,86
2023-01-03T05:26:07.445Z,86
2023-01-03T05:30:08.211Z,86
2023-01-03T05:31:07.743Z,86
2023-01-03T05:32:08.585Z,86
2023-01-03T05:33:08.512Z,86
2023-01-03T05:34:07.360Z,86
2023-01-03T05:35:08.004Z,86
2023-01-03T05:36:06.814Z,86
2023-01-03T05:37:08.299Z,86
2023-01-03T05:38:08.391Z,86
2023-01-03T05:39:07.800Z,86
2023-01-03T05:40:08.391Z,86
2023-01-03T05:43:08.458Z,86
2023-01-03T05:44:08.290Z,86
2023-01-03T05:45:08.725Z,86
2023-01-03T05:46:08.858Z,86
2023-01-03T05:47:08.115Z,86
2023-01-03T05:48:08.794Z,86
2023-01-03T05:51:08.364Z,86
2023-01-03T05:52:08.205Z,86
2023-01-03T05:53:08.395Z,86
2023-01-03T05:54:07.854Z,86
2023-01-03T05:55:08.141Z,86
2023-01-03T05:56:08.582Z,86
2023-01-03T05:57:08.673Z,86
2023-01-03T05:58:08.783Z,86
2023-01-03T05:59:07.382Z,87
2023-01-03T06:00:07.050Z,86
2023-01-03T06:01:08.145Z,86
2023-01-03T06:02:08.879Z,87
2023-01-03T06:03:08.395Z,87
2023-01-03T06:04:08.738Z,87
2023-01-03T06:05:08.260Z,87
2023-01-03T06:06:07.953Z,87
2023-01-03T06:07:08.180Z,87
2023-01-03T06:08:08.243Z,87
2023-01-03T06:09:07.818Z,87
2023-01-03T06:10:07.850Z,87
2023-01-03T06:11:08.707Z,87
2023-01-03T06:13:07.016Z,87
2023-01-03T06:14:08.042Z,87
2023-01-03T06:15:07.874Z,87
2023-01-03T06:16:08.092Z,87
2023-01-03T06:17:08.714Z,87
2023-01-03T06:18:08.578Z,87
2023-01-03T06:19:07.999Z,87
2023-01-03T06:20:08.288Z,87
2023-01-03T06:21:08.559Z,87
2023-01-03T06:22:15.203Z,87
2023-01-03T06:25:08.500Z,87
2023-01-03T06:26:07.867Z,87
2023-01-03T06:27:07.977Z,87
2023-01-03T06:28:08.536Z,87
2023-01-03T06:29:08.316Z,87
2023-01-03T06:30:07.902Z,87
2023-01-03T06:33:07.990Z,87
2023-01-03T06:34:07.848Z,87
2023-01-03T06:35:08.162Z,87
2023-01-03T06:36:08.323Z,87
2023-01-03T06:37:07.604Z,87
2023-01-03T06:38:08.653Z,87
2023-01-03T06:39:07.914Z,87
2023-01-03T06:40:08.718Z,87
2023-01-03T06:41:08.525Z,87
2023-01-03T06:42:08.349Z,87
2023-01-03T06:43:08.918Z,87
2023-01-03T06:44:07.898Z,87
2023-01-03T06:45:08.187Z,87
2023-01-03T06:46:08.400Z,87
2023-01-03T06:47:08.329Z,87
2023-01-03T06:49:08.452Z,87
2023-01-03T06:50:08.266Z,87
2023-01-03T06:51:08.230Z,87
2023-01-03T06:53:08.216Z,87
2023-01-03T06:54:08.399Z,87
2023-01-03T06:55:07.981Z,87
2023-01-03T06:56:07.889Z,87
2023-01-03T06:57:07.722Z,87
2023-01-03T06:58:08.560Z,87
2023-01-03T07:02:08.449Z,87
2023-01-03T07:03:17.123Z,87
2023-01-03T07:04:08.436Z,87
2023-01-03T07:05:08.394Z,87
2023-01-03T07:06:07.931Z,87
2023-01-03T07:07:08.128Z,87
2023-01-03T07:08:07.659Z,87
2023-01-03T07:09:08.016Z,87
2023-01-03T07:10:06.928Z,87
2023-01-03T07:13:08.099Z,87
2023-01-03T07:14:08.402Z,87
2023-01-03T07:15:07.797Z,87
2023-01-03T07:17:08.481Z,88
2023-01-03T07:18:07.917Z,88
2023-01-03T07:19:07.389Z,88
2023-01-03T07:20:08.106Z,88
2023-01-03T07:21:08.416Z,88
2023-01-03T07:22:07.959Z,88
2023-01-03T07:23:08.448Z,88
2023-01-03T07:26:08.573Z,88
2023-01-03T07:27:08.063Z,88
2023-01-03T07:28:15.360Z,88
2023-01-03T07:29:08.203Z,88
2023-01-03T07:30:08.188Z,88
2023-01-03T07:31:08.069Z,88
2023-01-03T07:32:07.663Z,88
2023-01-03T07:33:08.578Z,88
2023-01-03T07:34:07.054Z,88
2023-01-03T07:35:08.419Z,88
2023-01-03T07:36:16.157Z,88
2023-01-03T07:37:08.591Z,88
2023-01-03T07:38:07.956Z,88
2023-01-03T07:39:08.255Z,88
2023-01-03T07:40:08.325Z,88
2023-01-03T07:41:08.063Z,88
2023-01-03T07:42:07.843Z,88
2023-01-03T07:43:08.794Z,88
2023-01-03T07:44:08.754Z,88
2023-01-03T07:45:08.237Z,88
2023-01-03T07:46:08.895Z,88
2023-01-03T07:47:08.300Z,88
2023-01-03T07:48:08.400Z,88
2023-01-03T07:49:16.073Z,88
2023-01-03T07:50:08.441Z,88
2023-01-03T07:53:07.942Z,88
2023-01-03T07:54:08.163Z,88
2023-01-03T07:55:08.341Z,88
2023-01-03T07:56:15.577Z,88
2023-01-03T07:57:07.648Z,88
2023-01-03T07:58:07.999Z,88
2023-01-03T07:59:08.181Z,88
2023-01-03T08:00:08.172Z,88
2023-01-03T08:01:08.496Z,88
2023-01-03T08:02:08.529Z,88
2023-01-03T08:03:14.998Z,88
2023-01-03T08:04:08.424Z,88
2023-01-03T08:05:07.517Z,88
2023-01-03T08:06:07.075Z,88
2023-01-03T08:07:07.232Z,88
2023-01-03T08:08:08.689Z,88
2023-01-03T08:09:12.508Z,88
2023-01-03T08:10:08.273Z,88
2023-01-03T08:11:08.226Z,88
2023-01-03T08:12:08.331Z,88
2023-01-03T08:13:07.251Z,88
2023-01-03T08:14:08.229Z,88
2023-01-03T08:15:08.689Z,88
2023-01-03T08:16:08.575Z,88
2023-01-03T08:17:08.292Z,88
2023-01-03T08:18:08.476Z,88
2023-01-03T08:19:07.847Z,88
2023-01-03T08:20:08.012Z,88
2023-01-03T08:21:08.270Z,89
2023-01-03T08:22:08.428Z,89
2023-01-03T08:23:07.807Z,89
2023-01-03T08:24:07.759Z,89
2023-01-03T08:25:08.006Z,89
2023-01-03T08:26:06.993Z,89
2023-01-03T08:27:07.817Z,89
2023-01-03T08:28:07.514Z,89
2023-01-03T08:29:07.822Z,89
2023-01-03T08:30:08.541Z,89
2023-01-03T08:31:08.510Z,89
2023-01-03T08:33:08.140Z,89
2023-01-03T08:34:22.426Z,89
2023-01-03T08:35:08.091Z,89
2023-01-03T08:36:08.225Z,89
2023-01-03T08:37:08.642Z,89
2023-01-03T08:38:07.836Z,89
2023-01-03T08:39:07.815Z,89
2023-01-03T08:40:08.407Z,89
2023-01-03T08:41:08.218Z,89
2023-01-03T08:42:07.934Z,89
2023-01-03T08:43:08.029Z,88
2023-01-03T08:44:08.235Z,88
2023-01-03T08:45:07.974Z,88
2023-01-03T08:46:08.747Z,88
2023-01-03T08:47:10.256Z,88
2023-01-03T08:48:08.549Z,88
2023-01-03T08:49:07.802Z,89
2023-01-03T08:50:08.248Z,88
2023-01-03T08:51:08.301Z,88
2023-01-03T08:52:07.936Z,88
2023-01-03T08:53:07.962Z,88
2023-01-03T08:54:07.129Z,88
2023-01-03T08:55:08.652Z,88
2023-01-03T08:56:08.259Z,88
2023-01-03T08:57:08.973Z,88
2023-01-03T08:58:08.446Z,89
2023-01-03T08:59:08.734Z,89
2023-01-03T09:00:08.026Z,89
2023-01-03T09:01:08.727Z,89
2023-01-03T09:02:08.954Z,89
2023-01-03T09:03:09.499Z,89
2023-01-03T09:04:09.023Z,89
2023-01-03T09:05:07.203Z,89
2023-01-03T09:06:07.281Z,89
2023-01-03T09:07:08.594Z,89
2023-01-03T09:08:08.425Z,89
2023-01-03T09:09:08.646Z,89
2023-01-03T09:10:08.587Z,89
2023-01-03T09:11:07.771Z,89
2023-01-03T09:12:08.488Z,89
2023-01-03T09:13:07.896Z,89
2023-01-03T09:14:08.308Z,89
2023-01-03T09:15:08.445Z,89
2023-01-03T09:16:09.002Z,89
2023-01-03T09:17:07.073Z,89
2023-01-03T09:18:08.182Z,89
2023-01-03T09:19:08.439Z,89
2023-01-03T09:20:08.266Z,89
2023-01-03T09:21:07.954Z,89
2023-01-03T09:22:08.267Z,89
2023-01-03T09:23:08.473Z,89
2023-01-03T09:24:08.562Z,89
2023-01-03T09:25:06.853Z,89
2023-01-03T09:26:08.246Z,89
2023-01-03T09:27:07.814Z,89
2023-01-03T09:28:07.967Z,89
2023-01-03T09:29:07.677Z,89
2023-01-03T09:30:08.164Z,89
2023-01-03T09:31:08.656Z,89
2023-01-03T09:32:08.785Z,89
2023-01-03T09:34:08.269Z,89
2023-01-03T09:35:08.484Z,89
2023-01-03T09:36:06.888Z,89
2023-01-03T09:37:08.523Z,89
2023-01-03T09:38:07.946Z,89
2023-01-03T09:39:07.935Z,89
2023-01-03T09:40:08.355Z,89
2023-01-03T09:41:07.795Z,89
2023-01-03T09:42:08.034Z,89
2023-01-03T09:43:08.596Z,89
2023-01-03T09:44:07.835Z,89
2023-01-03T09:45:08.053Z,89
2023-01-03T09:46:08.223Z,89
2023-01-03T09:47:08.194Z,89
2023-01-03T09:48:06.802Z,89
2023-01-03T09:49:08.034Z,89
2023-01-03T09:51:29.372Z,89
2023-01-03T09:51:34.175Z,89
2023-01-03T09:53:07.767Z,89
2023-01-03T09:54:08.108Z,89
2023-01-03T09:55:08.227Z,89
2023-01-03T09:56:08.116Z,89
2023-01-03T09:59:08.090Z,89
2023-01-03T10:00:08.136Z,89
2023-01-03T10:01:07.201Z,89
2023-01-03T10:02:09.432Z,89
2023-01-03T10:03:09.609Z,89
2023-01-03T10:04:08.381Z,89
2023-01-03T10:05:07.878Z,89
2023-01-03T10:06:08.047Z,89
2023-01-03T10:07:07.695Z,89
2023-01-03T10:08:08.055Z,89
2023-01-03T10:09:08.240Z,89
2023-01-03T10:10:16.826Z,89
2023-01-03T10:11:08.439Z,89
2023-01-03T10:12:08.138Z,89
2023-01-03T10:13:08.267Z,89
2023-01-03T10:14:08.624Z,89
2023-01-03T10:15:08.685Z,89
2023-01-03T10:17:08.343Z,89
2023-01-03T10:18:08.333Z,89
2023-01-03T10:19:08.603Z,89
2023-01-03T10:20:07.792Z,89
2023-01-03T10:21:07.979Z,89
2023-01-03T10:22:07.813Z,89
2023-01-03T10:23:08.089Z,89
2023-01-03T10:24:08.251Z,89
2023-01-03T10:25:08.527Z,89
2023-01-03T10:26:07.874Z,89
2023-01-03T10:27:08.028Z,89
2023-01-03T10:28:06.958Z,89
2023-01-03T10:29:08.682Z,89
2023-01-03T10:30:07.958Z,89
2023-01-03T10:31:14.463Z,88
2023-01-03T10:32:08.582Z,89
2023-01-03T10:33:08.450Z,88
2023-01-03T10:34:08.134Z,88
2023-01-03T10:35:08.487Z,88
2023-01-03T10:36:07.855Z,88
2023-01-03T10:37:08.114Z,88
2023-01-03T10:38:08.501Z,88
2023-01-03T10:39:08.120Z,88
2023-01-03T10:40:08.608Z,88
2023-01-03T10:41:07.709Z,88
2023-01-03T10:42:08.252Z,88
2023-01-03T10:43:08.494Z,88
2023-01-03T10:44:08.760Z,88
2023-01-03T10:45:07.740Z,88
2023-01-03T10:47:08.633Z,88
2023-01-03T10:48:07.873Z,88
2023-01-03T10:49:38.653Z,88
2023-01-03T10:51:07.936Z,88
2023-01-03T10:52:07.157Z,88
2023-01-03T10:53:08.199Z,88
2023-01-03T10:54:08.117Z,88
2023-01-03T10:55:08.043Z,88
2023-01-03T10:56:08.697Z,88
2023-01-03T10:57:07.941Z,88
2023-01-03T10:58:08.634Z,88
2023-01-03T10:59:07.972Z,88
2023-01-03T11:00:07.839Z,88
2023-01-03T11:01:07.856Z,88
2023-01-03T11:02:09.192Z,88
2023-01-03T11:03:08.970Z,88
2023-01-03T11:04:07.382Z,88
2023-01-03T11:05:07.886Z,88
2023-01-03T11:06:08.548Z,88
2023-01-03T11:07:07.916Z,88
2023-01-03T11:08:08.287Z,88
2023-01-03T11:09:07.894Z,88
2023-01-03T11:10:08.232Z,88
2023-01-03T11:11:08.629Z,88
2023-01-03T11:12:07.623Z,88
2023-01-03T11:13:07.831Z,88
2023-01-03T11:14:08.121Z,88
2023-01-03T11:15:08.444Z,88
2023-01-03T11:16:07.847Z,88
2023-01-03T11:17:08.456Z,88
2023-01-03T11:19:07.923Z,88
2023-01-03T11:20:07.640Z,88
2023-01-03T11:21:08.112Z,88
2023-01-03T11:22:08.139Z,88
2023-01-03T11:25:08.187Z,88
2023-01-03T11:26:08.375Z,88
2023-01-03T11:28:16.135Z,88
2023-01-03T11:29:08.636Z,88
2023-01-03T11:30:08.337Z,88
2023-01-03T11:31:08.794Z,88
2023-01-03T11:32:09.237Z,88
2023-01-03T11:33:08.537Z,88
2023-01-03T11:34:07.827Z,88
2023-01-03T11:35:37.981Z,88
2023-01-03T11:37:07.663Z,88
2023-01-03T11:38:07.968Z,88
2023-01-03T11:39:20.163Z,88
2023-01-03T11:40:08.744Z,88
2023-01-03T11:41:07.065Z,88
2023-01-03T11:42:08.786Z,88
2023-01-03T11:43:07.659Z,88
2023-01-03T11:44:08.135Z,88
2023-01-03T11:45:07.892Z,88
2023-01-03T11:46:08.716Z,88
2023-01-03T11:47:08.400Z,88
2023-01-03T11:48:08.561Z,88
2023-01-03T11:49:08.270Z,88
2023-01-03T11:50:07.694Z,88
2023-01-03T11:51:08.016Z,88
2023-01-03T11:52:08.117Z,88
2023-01-03T11:54:08.055Z,88
2023-01-03T11:55:08.383Z,88
2023-01-03T11:56:08.713Z,88
2023-01-03T11:57:08.571Z,88
2023-01-03T11:59:07.867Z,88
2023-01-03T12:00:07.789Z,88
2023-01-03T12:02:08.642Z,88
2023-01-03T12:03:08.774Z,88
2023-01-03T12:04:08.739Z,88
2023-01-03T12:06:08.210Z,88
2023-01-03T12:07:52.960Z,88
2023-01-03T12:08:07.834Z,88
2023-01-03T12:09:07.480Z,88
2023-01-03T12:10:07.719Z,88
2023-01-03T12:11:08.285Z,88
2023-01-03T12:12:07.915Z,88
2023-01-03T12:13:08.234Z,88
2023-01-03T12:14:08.382Z,88
2023-01-03T12:15:07.180Z,88
2023-01-03T12:16:08.887Z,88
2023-01-03T12:17:08.608Z,88
2023-01-03T12:18:08.349Z,88
2023-01-03T12:19:16.179Z,88
2023-01-03T12:20:08.060Z,88
2023-01-03T12:21:08.473Z,88
2023-01-03T12:22:08.242Z,88
2023-01-03T12:23:08.703Z,88
2023-01-03T12:24:08.061Z,88
2023-01-03T12:25:12.007Z,88
2023-01-03T12:26:08.432Z,88
2023-01-03T12:27:07.669Z,88
2023-01-03T12:28:08.590Z,88
2023-01-03T12:29:08.356Z,88
2023-01-03T12:30:08.269Z,88
2023-01-03T12:31:08.565Z,88
2023-01-03T12:32:08.423Z,88
2023-01-03T12:33:08.577Z,88
2023-01-03T12:34:07.801Z,88
2023-01-03T12:35:08.602Z,88
2023-01-03T12:36:07.817Z,88
2023-01-03T12:37:08.145Z,88
2023-01-03T12:38:08.386Z,88
2023-01-03T12:39:07.675Z,88
2023-01-03T12:40:07.973Z,88
2023-01-03T12:41:08.354Z,88
2023-01-03T12:42:08.532Z,88
2023-01-03T12:43:07.771Z,88
2023-01-03T12:44:08.755Z,88
2023-01-03T12:45:08.384Z,88
2023-01-03T12:46:17.168Z,88
2023-01-03T12:47:08.937Z,88
2023-01-03T12:48:07.998Z,88
2023-01-03T12:49:08.209Z,88
2023-01-03T12:50:08.535Z,88
2023-01-03T12:51:07.609Z,88
2023-01-03T12:55:07.942Z,87
2023-01-03T12:56:08.253Z,88
2023-01-03T12:57:08.543Z,88
2023-01-03T12:58:08.866Z,88
2023-01-03T12:59:07.634Z,87
2023-01-03T13:00:07.855Z,87
2023-01-03T13:01:08.596Z,87
2023-01-03T13:02:09.186Z,87
2023-01-03T13:03:09.612Z,87
2023-01-03T13:05:08.239Z,87
2023-01-03T13:06:08.064Z,87
2023-01-03T13:07:08.537Z,87
2023-01-03T13:08:07.855Z,87
2023-01-03T13:09:08.085Z,87
2023-01-03T13:10:08.648Z,87
2023-01-03T13:11:08.236Z,87
2023-01-03T13:12:07.947Z,87
2023-01-03T13:13:07.962Z,87
2023-01-03T13:14:08.227Z,87
2023-01-03T13:15:08.332Z,87
2023-01-03T13:16:07.949Z,87
2023-01-03T13:17:06.947Z,87
2023-01-03T13:18:08.542Z,87
2023-01-03T13:19:08.539Z,87
2023-01-03T13:20:08.558Z,87
2023-01-03T13:21:08.324Z,87
2023-01-03T13:22:08.438Z,87
2023-01-03T13:23:08.854Z,87
2023-01-03T13:24:08.032Z,87
2023-01-03T13:25:08.076Z,87
2023-01-03T13:26:08.414Z,87
2023-01-03T13:27:07.780Z,87
2023-01-03T13:28:08.180Z,87
2023-01-03T13:30:08.212Z,87
2023-01-03T13:32:08.569Z,87
2023-01-03T13:33:08.400Z,87
2023-01-03T13:34:07.781Z,87
2023-01-03T13:35:08.410Z,87
2023-01-03T13:36:08.153Z,87
2023-01-03T13:37:07.874Z,87
2023-01-03T13:38:06.901Z,87
2023-01-03T13:39:08.058Z,87
2023-01-03T13:42:07.719Z,87
2023-01-03T13:43:08.355Z,87
2023-01-03T13:44:08.214Z,87
2023-01-03T13:45:08.655Z,87
2023-01-03T13:46:08.024Z,87
2023-01-03T13:47:08.302Z,87
2023-01-03T13:48:08.611Z,87
2023-01-03T13:49:07.747Z,87
2023-01-03T13:50:08.199Z,87
2023-01-03T13:52:08.665Z,87
2023-01-03T13:53:08.206Z,87
2023-01-03T13:54:08.518Z,87
2023-01-03T13:55:08.129Z,87
2023-01-03T13:56:08.364Z,87
2023-01-03T13:57:08.652Z,87
2023-01-03T13:58:08.153Z,87
2023-01-03T13:59:07.766Z,87
2023-01-03T14:00:08.314Z,87
2023-01-03T14:01:12.501Z,87
2023-01-03T14:02:09.076Z,87
2023-01-03T14:03:09.253Z,87
2023-01-03T14:04:09.129Z,87
2023-01-03T14:05:08.368Z,87
2023-01-03T14:06:08.767Z,87
2023-01-03T14:07:08.694Z,87
2023-01-03T14:08:07.121Z,87
2023-01-03T14:09:08.443Z,87
2023-01-03T14:10:08.529Z,87
2023-01-03T14:11:08.450Z,87
2023-01-03T14:12:08.588Z,87
2023-01-03T14:13:08.132Z,87
2023-01-03T14:14:08.233Z,87
2023-01-03T14:15:23.388Z,87
2023-01-03T14:16:08.323Z,87
2023-01-03T14:18:08.070Z,87
2023-01-03T14:19:08.076Z,87
2023-01-03T14:20:08.367Z,87
2023-01-03T14:21:21.828Z,87
2023-01-03T14:22:35.777Z,87
2023-01-03T14:25:08.518Z,87
2023-01-03T14:27:16.637Z,87
2023-01-03T14:28:07.970Z,87
2023-01-03T14:30:08.119Z,87
2023-01-03T14:31:07.984Z,87
2023-01-03T14:32:08.207Z,87
2023-01-03T14:33:08.283Z,87
2023-01-03T14:34:08.102Z,87
2023-01-03T14:36:08.098Z,87
2023-01-03T14:37:08.158Z,87
2023-01-03T14:40:08.054Z,87
2023-01-03T14:41:08.129Z,87
2023-01-03T14:42:08.074Z,87
2023-01-03T14:43:08.641Z,87
2023-01-03T14:44:08.237Z,87
2023-01-03T14:45:08.614Z,87
2023-01-03T14:46:08.221Z,87
2023-01-03T14:47:08.944Z,87
2023-01-03T14:48:08.044Z,87
2023-01-03T14:49:10.217Z,87
2023-01-03T14:50:08.529Z,87
2023-01-03T14:53:08.476Z,87
2023-01-03T14:54:08.678Z,87
2023-01-03T14:55:10.693Z,87
2023-01-03T14:56:07.822Z,87
2023-01-03T14:57:07.957Z,87
2023-01-03T14:58:08.370Z,87
2023-01-03T14:59:07.440Z,87
2023-01-03T15:00:08.254Z,87
2023-01-03T15:01:08.790Z,87
2023-01-03T15:02:08.788Z,87
2023-01-03T15:03:08.829Z,87
2023-01-03T15:05:07.747Z,87
2023-01-03T15:06:08.332Z,87
2023-01-03T15:07:18.059Z,87
2023-01-03T15:08:07.845Z,87
2023-01-03T15:09:07.918Z,87
2023-01-03T15:10:08.353Z,87
2023-01-03T15:11:07.765Z,87
2023-01-03T15:12:08.374Z,87
2023-01-03T15:13:11.414Z,87
2023-01-03T15:14:08.153Z,87
2023-01-03T15:16:07.913Z,87
2023-01-03T15:17:08.044Z,88
2023-01-03T15:18:14.681Z,88
2023-01-03T15:19:08.545Z,88
2023-01-03T15:20:07.814Z,88
2023-01-03T15:21:08.431Z,88
2023-01-03T15:22:08.480Z,88
2023-01-03T15:23:08.152Z,88
2023-01-03T15:24:07.914Z,88
2023-01-03T15:25:08.193Z,88
2023-01-03T15:26:08.158Z,88
2023-01-03T15:27:07.804Z,87
2023-01-03T15:28:08.332Z,87
2023-01-03T15:29:08.652Z,87
2023-01-03T15:30:17.374Z,87
2023-01-03T15:31:08.421Z,87
2023-01-03T15:32:08.140Z,87
2023-01-03T15:33:07.960Z,87
2023-01-03T15:34:06.801Z,87
2023-01-03T15:35:08.526Z,87
2023-01-03T15:36:09.880Z,87
2023-01-03T15:37:08.000Z,87
2023-01-03T15:38:08.454Z,87
2023-01-03T15:39:08.403Z,87
2023-01-03T15:40:08.077Z,87
2023-01-03T15:41:08.112Z,87
2023-01-03T15:42:58.430Z,87
2023-01-03T15:43:08.572Z,87
2023-01-03T15:44:07.951Z,87
2023-01-03T15:45:07.710Z,87
2023-01-03T15:46:08.508Z,87
2023-01-03T15:47:08.053Z,87
2023-01-03T15:48:16.537Z,87
2023-01-03T15:51:08.185Z,87
2023-01-03T15:52:08.399Z,87